Time;durP1;ratioP1;P1;durP2;ratioP2;P2;SDS_P1;SDS_P2;PMS_P1;PMS_P2;Temp;Humidity;BMP_temperature;BMP_pressure;BME280_temperature;BME280_humidity;BME280_pressure;Samples;Min_cycle;Max_cycle;Signal;HPM_P1;HPM_P2
2022/11/29 00:03:26;;;;;;;60.67;32.80;;;;;;;7.69;68.57;99668.72;10343673;28;20422;-65
2022/11/29 00:08:28;;;;;;;76.78;36.70;;;;;;;7.71;68.53;99671.28;10342056;28;20084;-66
2022/11/29 00:13:30;;;;;;;67.18;35.97;;;;;;;7.67;68.46;99669.75;10349973;28;20058;-64
2022/11/29 00:18:32;;;;;;;93.72;41.42;;;;;;;7.63;68.50;99668.22;10358703;28;20501;-66
2022/11/29 00:23:34;;;;;;;91.55;42.17;;;;;;;7.59;68.59;99674.50;10352890;28;20056;-66
2022/11/29 00:28:36;;;;;;;259.90;54.50;;;;;;;7.60;68.62;99674.44;10354845;28;20049;-65
2022/11/29 00:33:37;;;;;;;217.10;50.33;;;;;;;7.60;68.64;99678.78;10363748;28;20645;-65
2022/11/29 00:38:40;;;;;;;97.88;41.90;;;;;;;7.57;68.92;99677.16;10346587;28;20046;-65
2022/11/29 00:43:41;;;;;;;109.15;33.60;;;;;;;7.54;68.61;99674.75;10353076;28;20053;-66
2022/11/29 00:48:43;;;;;;;558.90;46.75;;;;;;;7.51;68.96;99674.88;10351615;28;20205;-66
2022/11/29 00:53:45;;;;;;;643.38;51.20;;;;;;;7.52;68.83;99676.59;10348935;28;20061;-65
2022/11/29 00:58:48;;;;;;;497.40;43.45;;;;;;;7.52;68.75;99671.38;10347261;28;20053;-65
2022/11/29 01:03:49;;;;;;;207.95;38.08;;;;;;;7.49;68.85;99691.53;10363459;28;20050;-65
2022/11/29 01:08:51;;;;;;;83.13;34.58;;;;;;;7.47;68.81;99682.94;10357222;28;20058;-65
2022/11/29 01:13:56;;;;;;;74.72;34.38;;;;;;;7.45;68.82;99682.19;10348312;28;20058;-65
2022/11/29 01:18:57;;;;;;;67.90;32.45;;;;;;;7.39;69.17;99690.28;10372031;28;20482;-65
2022/11/29 01:24:00;;;;;;;53.20;29.67;;;;;;;7.37;69.13;99684.31;10355330;28;20141;-65
2022/11/29 01:29:02;;;;;;;64.18;31.27;;;;;;;7.39;69.05;99693.72;10345968;28;20221;-65
2022/11/29 01:34:05;;;;;;;69.82;32.92;;;;;;;7.45;68.90;99695.19;10361685;28;20529;-64
2022/11/29 01:39:07;;;;;;;90.82;35.60;;;;;;;7.39;69.00;99698.94;10350697;28;20053;-65
2022/11/29 01:44:11;;;;;;;31.42;21.58;;;;;;;7.33;69.05;99688.84;10354743;28;20045;-64
2022/11/29 01:49:25;;;;;;;36.58;22.20;;;;;;;7.30;69.07;99707.22;10352540;28;20046;-65
2022/11/29 01:54:28;;;;;;;49.47;26.10;;;;;;;7.28;69.39;99703.84;10346064;28;20049;-65
2022/11/29 01:59:30;;;;;;;35.30;21.23;;;;;;;7.37;69.20;99695.56;10344377;28;20548;-65
2022/11/29 02:04:36;;;;;;;39.90;22.92;;;;;;;7.46;68.91;99702.91;10348976;28;20410;-65
2022/11/29 02:09:38;;;;;;;60.92;27.17;;;;;;;7.48;68.84;99701.06;10369024;28;20076;-65
2022/11/29 02:14:43;;;;;;;64.90;27.58;;;;;;;7.53;68.93;99706.88;10350698;28;21529;-65
2022/11/29 02:20:07;;;;;;;58.35;27.73;;;;;;;7.54;68.68;99707.72;10355684;28;20087;-65
2022/11/29 02:25:22;;;;;;;75.82;29.67;;;;;;;7.61;68.58;99706.50;10349435;28;20049;-65
2022/11/29 02:30:33;;;;;;;51.63;24.20;;;;;;;7.44;69.11;99704.75;10347416;28;20056;-65
2022/11/29 02:35:50;;;;;;;;;;;;;;;7.16;69.90;99707.06;10357953;28;20049;-65
2022/11/29 02:40:55;;;;;;;71.80;29.67;;;;;;;7.47;69.10;99704.59;10345187;28;20484;-65
2022/11/29 02:46:24;;;;;;;31.63;18.90;;;;;;;7.38;69.20;99697.25;10356704;28;20052;-65
2022/11/29 02:51:37;;;;;;;65.05;26.83;;;;;;;7.27;69.57;99702.16;10356126;28;20586;-65
2022/11/29 02:56:45;;;;;;;69.15;28.58;;;;;;;7.34;69.29;99707.88;10350106;28;20053;-66
2022/11/29 03:02:28;;;;;;;71.68;28.58;;;;;;;7.32;69.21;99707.97;10368339;28;20058;-65
2022/11/29 03:08:02;;;;;;;63.60;26.77;;;;;;;7.26;69.06;99710.03;10351445;28;20062;-65
2022/11/29 03:13:15;;;;;;;38.10;20.05;;;;;;;7.17;69.46;99721.72;10327887;28;20049;-64
2022/11/29 03:18:49;;;;;;;80.57;30.17;;;;;;;7.16;69.61;99725.25;10368312;28;20042;-65
2022/11/29 03:23:57;;;;;;;59.63;25.20;;;;;;;7.13;70.01;99726.25;10361287;28;20076;-65
2022/11/29 03:29:07;;;;;;;45.90;22.83;;;;;;;7.18;69.96;99729.44;10370091;28;20498;-65
2022/11/29 03:34:28;;;;;;;64.40;26.37;;;;;;;7.20;70.02;99732.81;10355253;28;20054;-65
2022/11/29 03:39:42;;;;;;;50.73;22.90;;;;;;;7.25;70.02;99737.78;10347753;28;20288;-66
2022/11/29 03:44:52;;;;;;;40.75;21.50;;;;;;;7.36;69.89;99732.91;10373780;28;20049;-65
2022/11/29 03:50:02;;;;;;;60.72;25.08;;;;;;;7.45;69.69;99740.25;10371798;28;20065;-65
2022/11/29 03:55:19;;;;;;;51.73;24.40;;;;;;;7.37;69.69;99745.00;10357031;28;20399;-65
2022/11/29 04:00:21;;;;;;;31.35;17.90;;;;;;;7.41;69.52;99736.13;10375070;28;20493;-65
2022/11/29 04:05:36;;;;;;;64.07;25.80;;;;;;;7.37;69.61;99734.59;10364646;28;20050;-66
2022/11/29 04:11:12;;;;;;;74.50;28.45;;;;;;;7.29;69.34;99743.69;10350181;28;20046;-65
2022/11/29 04:16:41;;;;;;;55.00;24.38;;;;;;;7.21;69.66;99744.06;10371443;28;20053;-65
2022/11/29 04:21:58;;;;;;;59.75;26.02;;;;;;;7.14;69.93;99750.50;10370725;28;20060;-65
2022/11/29 04:27:19;;;;;;;56.00;24.55;;;;;;;7.15;69.68;99755.63;10362720;28;20734;-65
2022/11/29 04:32:27;;;;;;;;;;;;;;;6.91;70.34;99766.34;10366322;28;20045;-66
2022/11/29 04:38:02;;;;;;;49.03;24.00;;;;;;;7.11;69.84;99763.63;10356476;28;19925;-66
2022/11/29 04:43:34;;;;;;;249.85;36.33;;;;;;;7.08;70.02;99769.00;10350199;28;20057;-65
2022/11/29 04:49:14;;;;;;;42.00;20.42;;;;;;;7.14;69.90;99774.72;10366017;28;20516;-65
2022/11/29 04:54:30;;;;;;;39.17;19.63;;;;;;;7.25;70.11;99776.81;10351770;28;20053;-66
2022/11/29 04:59:57;;;;;;;62.05;23.92;;;;;;;7.38;69.81;99783.13;10353352;28;20050;-65
2022/11/29 05:05:27;;;;;;;46.20;21.50;;;;;;;7.28;69.75;99787.09;10325834;28;20313;-65
2022/11/29 05:10:56;;;;;;;60.88;24.67;;;;;;;7.14;70.02;99792.94;10367243;28;20046;-65
2022/11/29 05:16:06;;;;;;;49.47;22.27;;;;;;;7.15;70.31;99802.44;10358728;28;20502;-66
2022/11/29 05:21:18;;;;;;;56.00;23.38;;;;;;;7.27;70.18;99800.13;10355760;28;20195;-66
2022/11/29 05:26:37;;;;;;;47.45;21.90;;;;;;;7.21;70.33;99801.28;10355057;28;20049;-66
2022/11/29 05:32:03;;;;;;;45.35;19.80;;;;;;;7.36;70.16;99810.97;10356000;28;20060;-66
2022/11/29 05:37:16;;;;;;;40.90;20.48;;;;;;;7.38;70.06;99809.13;10356309;28;20506;-66
2022/11/29 05:42:46;;;;;;;49.53;22.20;;;;;;;7.40;69.88;99811.66;10349757;28;20050;-64
2022/11/29 05:48:06;;;;;;;40.03;20.52;;;;;;;7.39;69.93;99809.94;10348616;28;20054;-65
2022/11/29 05:53:22;;;;;;;69.97;27.45;;;;;;;7.48;69.69;99805.16;10346599;28;20054;-64
2022/11/29 05:58:51;;;;;;;47.28;22.33;;;;;;;7.53;69.68;99825.75;10360134;28;20053;-65
2022/11/29 06:03:58;;;;;;;35.25;18.13;;;;;;;7.50;69.62;99824.16;10354386;28;20313;-65
2022/11/29 06:09:20;;;;;;;41.40;20.67;;;;;;;7.49;69.79;99826.81;10363301;28;20053;-65
2022/11/29 06:14:34;;;;;;;42.15;20.73;;;;;;;7.49;70.04;99834.63;10352787;28;20785;-65
2022/11/29 06:19:53;;;;;;;40.85;21.45;;;;;;;7.45;69.85;99838.31;10358660;28;20049;-66
2022/11/29 06:25:16;;;;;;;64.13;26.33;;;;;;;7.53;69.75;99846.56;10387859;28;20055;-64
2022/11/29 06:30:25;;;;;;;54.78;24.17;;;;;;;7.70;69.51;99842.22;10387135;28;20056;-64
2022/11/29 06:35:45;;;;;;;39.13;20.52;;;;;;;7.70;69.29;99850.03;10385466;28;20064;-64
2022/11/29 06:40:48;;;;;;;46.27;22.10;;;;;;;7.72;69.58;99849.94;10384027;28;20049;-64
2022/11/29 06:46:11;;;;;;;55.80;24.83;;;;;;;7.79;69.36;99849.56;10361920;28;20065;-65
2022/11/29 06:51:43;;;;;;;73.30;28.17;;;;;;;7.72;69.25;99852.56;10314762;28;20391;-65
2022/11/29 06:57:10;;;;;;;29.42;17.83;;;;;;;7.63;69.48;99855.63;10345556;28;20053;-64
2022/11/29 07:02:53;;;;;;;51.63;23.33;;;;;;;7.72;69.29;99858.59;10345413;28;20053;-65
2022/11/29 07:08:01;;;;;;;68.10;25.90;;;;;;;7.80;69.19;99869.47;10334327;28;20341;-65
2022/11/29 07:13:03;;;;;;;49.55;23.83;;;;;;;7.70;69.41;99870.84;10382255;28;20060;-64
2022/11/29 07:18:23;;;;;;;43.58;22.48;;;;;;;7.69;69.50;99869.16;10384268;28;20581;-64
2022/11/29 07:23:34;;;;;;;58.88;24.33;;;;;;;7.77;69.56;99877.44;10356053;28;20297;-72
2022/11/29 07:29:09;;;;;;;57.42;24.67;;;;;;;7.79;69.37;99882.59;10357447;28;20045;-73
2022/11/29 07:34:20;;;;;;;48.53;22.25;;;;;;;7.80;69.30;99887.69;10310880;28;20060;-73
2022/11/29 07:39:38;;;;;;;47.80;22.20;;;;;;;7.81;69.41;99891.97;10362990;28;20046;-72
2022/11/29 07:45:05;;;;;;;38.30;19.55;;;;;;;7.80;69.22;99898.13;10352484;28;20060;-72
2022/11/29 07:50:07;;;;;;;83.68;31.42;;;;;;;7.86;69.30;99900.41;10353950;28;20485;-73
2022/11/29 07:55:13;;;;;;;44.70;21.95;;;;;;;7.82;69.48;99908.44;10354065;28;20061;-72
2022/11/29 08:00:20;;;;;;;73.95;27.52;;;;;;;7.81;69.52;99910.19;10351735;28;20484;-72
2022/11/29 08:05:22;;;;;;;61.65;24.95;;;;;;;7.91;69.37;99908.88;10341995;28;20050;-72
2022/11/29 08:10:24;;;;;;;45.47;22.25;;;;;;;8.02;69.05;99906.56;10340128;28;21391;-72
2022/11/29 08:15:26;;;;;;;72.65;27.90;;;;;;;8.08;69.18;99912.41;10346625;28;20250;-73
2022/11/29 08:20:28;;;;;;;48.83;23.45;;;;;;;8.13;69.30;99918.22;10367581;28;20498;-71
2022/11/29 08:25:29;;;;;;;47.40;24.15;;;;;;;8.11;69.06;99925.28;10365217;28;20053;-73
2022/11/29 08:30:31;;;;;;;49.95;23.70;;;;;;;8.16;69.04;99936.31;10341726;28;20491;-73
2022/11/29 08:35:33;;;;;;;36.30;19.77;;;;;;;8.16;69.03;99934.53;10348727;28;20076;-72
2022/11/29 08:40:35;;;;;;;45.30;23.42;;;;;;;8.16;69.09;99951.97;10345214;28;20054;-73
2022/11/29 08:45:37;;;;;;;57.17;25.55;;;;;;;8.24;69.00;99952.41;10353962;28;20141;-72
2022/11/29 08:50:38;;;;;;;39.17;20.55;;;;;;;8.29;68.75;99951.25;10365777;28;20231;-72
2022/11/29 08:55:41;;;;;;;35.58;19.00;;;;;;;8.35;68.94;99961.38;10348272;28;20061;-72
2022/11/29 09:00:45;;;;;;;43.25;21.98;;;;;;;8.44;68.87;99967.91;10355714;28;20087;-73
2022/11/29 09:05:47;;;;;;;34.90;20.42;;;;;;;8.51;68.88;99975.31;10344090;28;20100;-73
2022/11/29 09:10:49;;;;;;;36.40;20.65;;;;;;;8.59;68.76;99975.78;10353913;28;20738;-73
2022/11/29 09:15:51;;;;;;;40.40;20.52;;;;;;;8.58;68.79;99981.06;10378326;28;20494;-73
2022/11/29 09:20:53;;;;;;;27.02;16.15;;;;;;;8.58;68.80;99981.06;10373623;28;20072;-73
2022/11/29 09:25:55;;;;;;;42.05;21.42;;;;;;;8.66;68.77;99990.19;10385160;28;20049;-73
2022/11/29 09:31:03;;;;;;;59.75;32.33;;;;;;;8.69;68.89;99994.38;10344692;28;20046;-72
2022/11/29 09:36:10;;;;;;;57.63;25.00;;;;;;;8.79;68.76;99998.25;10355881;28;20053;-73
2022/11/29 09:41:25;;;;;;;27.60;17.35;;;;;;;8.77;68.49;99992.25;10367979;28;21225;-72
2022/11/29 09:46:42;;;;;;;38.95;20.42;;;;;;;8.75;68.78;99997.53;10343444;28;20056;-73
2022/11/29 09:52:21;;;;;;;41.10;19.85;;;;;;;8.75;68.66;100007.97;10359437;28;20081;-73
2022/11/29 09:57:25;;;;;;;38.47;20.67;;;;;;;8.83;68.70;100004.97;10365527;28;20057;-73
2022/11/29 10:02:36;;;;;;;41.90;20.48;;;;;;;8.94;68.63;100004.41;10342071;28;20413;-73
2022/11/29 10:08:06;;;;;;;43.97;21.98;;;;;;;8.94;68.58;100007.88;10343548;28;20140;-73
2022/11/29 10:13:28;;;;;;;29.85;17.27;;;;;;;9.02;68.40;100013.53;10359337;28;20061;-73
2022/11/29 10:18:43;;;;;;;29.58;16.92;;;;;;;9.07;68.52;100019.34;10349759;28;20058;-73
2022/11/29 10:23:49;;;;;;;28.08;17.35;;;;;;;9.12;68.56;100016.47;10361345;28;20042;-73
2022/11/29 10:28:54;;;;;;;28.58;16.20;;;;;;;9.19;68.32;100017.88;10344691;28;20801;-73
2022/11/29 10:33:59;;;;;;;32.63;18.88;;;;;;;9.23;68.36;100015.03;10336302;28;20502;-73
2022/11/29 10:39:04;;;;;;;30.00;17.88;;;;;;;9.23;68.37;100019.38;10345494;28;20057;-73
2022/11/29 10:44:14;;;;;;;36.97;19.17;;;;;;;9.23;68.58;100022.00;10347201;28;20217;-73
2022/11/29 10:49:20;;;;;;;40.88;21.88;;;;;;;9.21;68.50;100022.09;10347933;28;20054;-74
2022/11/29 10:54:42;;;;;;;29.98;17.83;;;;;;;9.17;68.62;100020.56;10357552;28;20057;-74
2022/11/29 11:00:03;;;;;;;35.45;20.25;;;;;;;9.22;68.55;100028.16;10342468;28;20073;-73
2022/11/29 11:05:17;;;;;;;43.92;24.50;;;;;;;9.24;68.44;100021.91;10345673;28;20034;-73
2022/11/29 11:10:28;;;;;;;29.65;17.95;;;;;;;9.28;68.35;100025.22;10337047;28;20054;-73
2022/11/29 11:15:31;;;;;;;36.67;19.10;;;;;;;9.35;68.40;100029.19;10363375;28;20061;-73
2022/11/29 11:20:40;;;;;;;46.97;26.23;;;;;;;9.38;68.40;100024.63;10359137;28;20509;-73
2022/11/29 11:25:42;;;;;;;59.78;32.80;;;;;;;9.43;68.30;100024.38;10344589;28;20076;-73
2022/11/29 11:30:59;;;;;;;53.20;28.13;;;;;;;9.45;68.37;100033.84;10374302;28;20053;-73
2022/11/29 11:36:08;;;;;;;33.17;20.52;;;;;;;9.46;68.00;100034.69;10341155;28;20057;-73
2022/11/29 11:46:49;;;;;;;39.92;20.13;;;;;;;9.44;68.23;100039.97;10354105;28;20422;-73
2022/11/29 11:51:51;;;;;;;46.22;22.65;;;;;;;9.45;68.08;100051.25;10340530;28;20591;-73
2022/11/29 11:56:54;;;;;;;29.48;18.30;;;;;;;9.51;68.27;100051.78;10342952;28;20049;-73
2022/11/29 12:01:56;;;;;;;51.85;25.38;;;;;;;9.63;68.43;100045.91;10360425;28;20054;-72
2022/11/29 12:06:59;;;;;;;46.00;23.25;;;;;;;9.71;68.29;100047.28;10355260;28;20101;-73
2022/11/29 12:12:19;;;;;;;29.10;18.88;;;;;;;9.80;68.28;100046.78;10354153;28;20317;-73
2022/11/29 12:17:32;;;;;;;38.78;21.77;;;;;;;9.86;68.16;100041.22;10369293;28;20061;-73
2022/11/29 12:22:44;;;;;;;39.13;21.10;;;;;;;9.99;67.70;100037.00;10368014;28;20484;-73
2022/11/29 12:27:49;;;;;;;33.05;19.75;;;;;;;10.17;67.57;100043.81;10365567;28;20393;-73
2022/11/29 12:33:11;;;;;;;32.00;16.92;;;;;;;10.25;67.12;100049.44;10353860;28;20054;-72
2022/11/29 12:38:29;;;;;;;20.02;13.50;;;;;;;10.13;67.16;100050.16;10355484;28;20049;-74
2022/11/29 12:43:50;;;;;;;21.98;13.63;;;;;;;10.04;67.21;100048.88;10348853;28;20053;-72
2022/11/29 12:49:19;;;;;;;24.35;15.73;;;;;;;9.81;67.23;100056.31;10352294;28;21358;-73
2022/11/29 12:54:43;;;;;;;17.52;13.05;;;;;;;9.81;67.52;100062.34;10346841;28;20057;-72
2022/11/29 13:00:16;;;;;;;22.92;14.80;;;;;;;9.76;67.59;100060.94;10350624;28;20061;-73
2022/11/29 13:05:41;;;;;;;20.17;13.65;;;;;;;9.78;67.48;100066.91;10343660;28;20049;-73
2022/11/29 13:11:11;;;;;;;18.30;13.32;;;;;;;9.76;67.76;100071.38;10355726;28;20053;-73
2022/11/29 13:16:15;;;;;;;14.60;10.52;;;;;;;9.78;67.14;100066.91;10355593;28;20422;-73
2022/11/29 13:21:37;;;;;;;15.95;9.95;;;;;;;9.77;67.06;100076.50;10351887;28;20076;-72
2022/11/29 13:26:40;;;;;;;16.27;9.93;;;;;;;9.72;67.01;100075.06;10352846;28;20058;-73
2022/11/29 13:31:44;;;;;;;15.88;9.77;;;;;;;9.68;66.80;100089.22;10365842;28;20046;-72
2022/11/29 13:36:58;;;;;;;19.02;10.48;;;;;;;9.71;66.65;100086.47;10365585;28;20418;-73
2022/11/29 13:42:41;;;;;;;23.95;12.20;;;;;;;9.70;66.44;100093.44;10350304;28;20054;-73
2022/11/29 13:47:55;;;;;;;21.38;12.55;;;;;;;9.67;66.16;100090.16;10324569;28;20052;-73
2022/11/29 13:53:12;;;;;;;25.92;14.15;;;;;;;9.67;66.48;100096.22;10343241;28;20089;-73
2022/11/29 13:58:13;;;;;;;35.08;17.17;;;;;;;9.60;66.60;100098.28;10347496;28;20097;-74
2022/11/29 14:03:27;;;;;;;37.60;17.55;;;;;;;9.51;66.90;100106.59;10352217;28;20053;-73
2022/11/29 14:08:35;;;;;;;38.63;18.58;;;;;;;9.46;66.84;100105.97;10349265;28;20449;-73
2022/11/29 14:14:07;;;;;;;42.50;19.77;;;;;;;9.41;67.00;100110.63;10353447;28;20057;-72
2022/11/29 14:19:08;;;;;;;38.42;17.77;;;;;;;9.34;66.76;100111.84;10349550;28;20060;-74
2022/11/29 14:24:35;;;;;;;43.90;19.05;;;;;;;9.16;66.24;100111.94;10357551;28;20049;-74
2022/11/29 14:29:48;;;;;;;43.78;19.52;;;;;;;9.02;66.36;100112.66;10373153;28;20049;-73
2022/11/29 14:35:08;;;;;;;39.08;17.52;;;;;;;8.90;66.72;100110.66;10348512;28;20060;-74
2022/11/29 14:40:16;;;;;;;41.47;17.38;;;;;;;8.84;66.82;100116.19;10345009;28;20053;-73
2022/11/29 14:45:33;;;;;;;41.42;17.60;;;;;;;8.73;66.85;100123.69;10355490;28;20313;-74
2022/11/29 14:50:38;;;;;;;39.75;17.38;;;;;;;8.63;66.93;100122.44;10347669;28;20049;-74
2022/11/29 14:55:41;;;;;;;45.38;18.17;;;;;;;8.50;67.24;100122.22;10349855;28;20053;-74
2022/11/29 15:00:46;;;;;;;40.65;15.55;;;;;;;8.33;67.34;100135.19;10367189;28;20119;-74
2022/11/29 15:05:59;;;;;;;40.30;14.95;;;;;;;8.18;67.31;100138.50;10369716;28;20041;-74
2022/11/29 15:11:43;;;;;;;35.42;13.40;;;;;;;8.03;67.41;100142.66;10355410;28;20045;-74
2022/11/29 15:17:12;;;;;;;32.22;12.55;;;;;;;7.94;67.62;100143.06;10384799;28;20049;-74
2022/11/29 15:22:18;;;;;;;36.45;13.18;;;;;;;7.89;67.45;100152.00;10357487;28;20752;-74
2022/11/29 15:27:21;;;;;;;37.13;13.93;;;;;;;7.83;67.68;100147.91;10351698;28;20054;-73
2022/11/29 15:32:31;;;;;;;41.72;15.30;;;;;;;7.75;67.77;100155.22;10361815;28;20057;-73
2022/11/29 15:37:32;;;;;;;39.63;14.47;;;;;;;7.73;67.98;100164.84;10342143;28;20133;-74
2022/11/29 15:42:46;;;;;;;37.05;13.52;;;;;;;7.71;67.91;100168.47;10341317;28;20484;-73
2022/11/29 15:47:48;;;;;;;39.67;14.60;;;;;;;7.62;68.15;100161.03;10368393;28;20053;-72
2022/11/29 15:52:53;;;;;;;42.78;15.27;;;;;;;7.54;68.23;100178.75;10379033;28;20061;-73
2022/11/29 15:57:57;;;;;;;43.72;15.95;;;;;;;7.42;68.40;100182.75;10391772;28;20049;-72
2022/11/29 16:03:06;;;;;;;;;;;;;;;7.04;69.11;100191.31;10365051;28;20232;-71
2022/11/29 16:08:18;;;;;;;53.70;18.95;;;;;;;7.16;68.97;100198.59;10350515;28;19933;-72
2022/11/29 16:13:31;;;;;;;55.25;18.73;;;;;;;7.10;69.05;100201.47;10365288;28;20448;-73
2022/11/29 16:18:33;;;;;;;49.60;18.92;;;;;;;7.06;69.38;100202.50;10390380;28;20045;-72
2022/11/29 16:23:38;;;;;;;59.97;21.00;;;;;;;6.97;69.20;100200.25;10362895;28;20053;-73
2022/11/29 16:28:45;;;;;;;67.07;22.02;;;;;;;6.87;69.44;100210.19;10349813;28;20443;-73
2022/11/29 16:33:49;;;;;;;67.80;21.17;;;;;;;6.73;69.58;100201.25;10346960;28;20050;-72
2022/11/29 16:38:57;;;;;;;56.08;20.33;;;;;;;6.68;70.54;100198.81;10349552;28;20049;-73
2022/11/29 16:44:02;;;;;;;52.63;20.48;;;;;;;6.73;70.10;100209.91;10347560;28;20061;-66
2022/11/29 16:49:32;;;;;;;59.75;21.50;;;;;;;6.66;69.95;100212.78;10357102;28;20056;-67
2022/11/29 16:54:34;;;;;;;73.10;24.40;;;;;;;6.66;70.11;100218.81;10335747;28;21099;-67
2022/11/29 16:59:37;;;;;;;62.22;22.65;;;;;;;6.61;70.19;100230.31;10358594;28;20452;-66
2022/11/29 17:04:39;;;;;;;75.40;25.58;;;;;;;6.58;70.63;100225.22;10346245;28;20841;-66
2022/11/29 17:09:41;;;;;;;55.45;20.52;;;;;;;6.60;70.21;100229.47;10350866;28;20053;-66
2022/11/29 17:14:44;;;;;;;63.95;24.73;;;;;;;6.66;70.02;100233.56;10350370;28;20053;-66
2022/11/29 17:19:46;;;;;;;81.47;30.15;;;;;;;6.74;70.02;100237.56;10372806;28;20119;-66
2022/11/29 17:24:47;;;;;;;93.65;25.25;;;;;;;6.74;70.06;100234.13;10348978;28;20053;-66
2022/11/29 17:29:49;;;;;;;99.00;27.55;;;;;;;6.78;69.95;100233.94;10370749;28;20050;-66
2022/11/29 17:34:51;;;;;;;82.90;27.80;;;;;;;6.78;69.89;100231.34;10359636;28;20087;-65
2022/11/29 17:39:52;;;;;;;82.47;28.27;;;;;;;6.87;69.89;100236.19;10349859;28;20490;-66
2022/11/29 17:44:55;;;;;;;94.20;30.35;;;;;;;6.96;69.61;100237.56;10350759;28;20458;-66
2022/11/29 17:49:57;;;;;;;80.32;26.48;;;;;;;7.00;69.69;100246.91;10360676;28;20429;-67
2022/11/29 17:54:58;;;;;;;67.70;25.77;;;;;;;7.02;69.48;100243.34;10365367;28;20060;-67
2022/11/29 18:00:03;;;;;;;65.78;27.48;;;;;;;7.03;69.44;100255.47;10354578;28;20050;-67
2022/11/29 18:05:05;;;;;;;62.28;26.30;;;;;;;7.03;69.55;100254.63;10343105;28;20050;-67
2022/11/29 18:10:07;;;;;;;64.00;26.55;;;;;;;7.10;69.52;100262.09;10357346;28;20056;-67
2022/11/29 18:15:09;;;;;;;81.20;27.90;;;;;;;7.18;69.13;100264.41;10355001;28;20608;-67
2022/11/29 18:20:12;;;;;;;62.92;25.42;;;;;;;7.19;69.03;100266.09;10364029;28;20499;-67
2022/11/29 18:25:14;;;;;;;71.65;27.52;;;;;;;7.10;69.09;100258.69;10354780;28;20046;-67
2022/11/29 18:30:45;;;;;;;70.13;28.20;;;;;;;7.07;69.15;100267.44;10497175;27;21296;-66
2022/11/29 18:35:48;;;;;;;73.95;28.60;;;;;;;7.18;69.04;100256.59;10460147;28;20382;-66
2022/11/29 18:40:49;;;;;;;68.50;28.65;;;;;;;7.19;68.86;100261.75;10462533;28;20409;-66
2022/11/29 18:45:51;;;;;;;76.75;29.38;;;;;;;7.23;68.74;100265.06;10462343;28;20045;-66
2022/11/29 18:50:53;;;;;;;84.13;29.30;;;;;;;7.34;68.78;100272.44;10464549;28;20483;-66
2022/11/29 18:56:03;;;;;;;81.28;29.65;;;;;;;7.42;68.58;100268.59;10462651;28;20512;-66
2022/11/29 19:01:09;;;;;;;70.53;28.40;;;;;;;7.38;68.69;100282.66;10461717;28;20155;-66
2022/11/29 19:06:13;;;;;;;67.65;27.60;;;;;;;7.42;68.70;100275.56;10469762;28;20045;-66
2022/11/29 19:11:18;;;;;;;67.63;27.52;;;;;;;7.47;68.54;100282.25;10461871;28;20039;-66
2022/11/29 19:16:23;;;;;;;57.92;25.23;;;;;;;7.44;68.33;100282.41;10471229;28;20056;-66
2022/11/29 19:21:27;;;;;;;61.30;25.73;;;;;;;7.44;68.50;100284.16;10460679;28;20044;-65
2022/11/29 19:26:30;;;;;;;69.78;27.65;;;;;;;7.48;68.61;100283.97;10472202;28;20056;-66
2022/11/29 19:31:32;;;;;;;71.40;27.60;;;;;;;7.52;68.48;100287.28;10461508;28;20527;-65
2022/11/29 19:36:36;;;;;;;73.40;28.13;;;;;;;7.59;68.42;100289.56;10463324;28;20057;-66
2022/11/29 19:41:37;;;;;;;58.08;25.83;;;;;;;7.49;68.06;100296.03;10433980;28;20064;-66
2022/11/29 19:46:43;;;;;;;91.78;32.03;;;;;;;7.40;68.36;100301.66;10435454;28;20494;-66
2022/11/29 19:51:45;;;;;;;95.10;31.33;;;;;;;7.39;68.38;100297.34;10454166;28;20381;-66
2022/11/29 19:56:46;;;;;;;83.90;30.00;;;;;;;7.29;68.54;100300.38;10431086;28;20507;-66
2022/11/29 20:01:48;;;;;;;77.93;29.83;;;;;;;7.26;68.55;100309.16;10445997;28;20052;-66
2022/11/29 20:06:50;;;;;;;88.78;31.30;;;;;;;7.27;68.50;100312.59;10446593;28;20049;-66
2022/11/29 20:11:52;;;;;;;79.35;28.58;;;;;;;7.30;68.53;100315.09;10428910;28;20040;-66
2022/11/29 20:16:53;;;;;;;79.35;28.75;;;;;;;7.31;68.59;100320.22;10429409;28;20281;-66
2022/11/29 20:21:55;;;;;;;86.85;28.35;;;;;;;7.33;68.68;100322.75;10427498;28;20481;-65
2022/11/29 20:26:56;;;;;;;107.03;33.20;;;;;;;7.36;68.55;100320.91;10429383;28;20053;-66
2022/11/29 20:31:58;;;;;;;87.07;30.25;;;;;;;7.35;68.37;100327.00;10424879;28;20053;-66
2022/11/29 20:37:09;;;;;;;101.93;33.83;;;;;;;7.35;68.32;100327.00;10429266;28;20122;-66
2022/11/29 20:42:47;;;;;;;72.97;27.50;;;;;;;7.27;68.30;100326.44;10429510;28;20520;-65
2022/11/29 20:48:15;;;;;;;79.22;29.23;;;;;;;7.29;68.38;100328.97;10429860;28;20049;-66
2022/11/29 20:53:30;;;;;;;87.07;29.98;;;;;;;7.28;68.43;100328.16;10427586;28;20048;-66
2022/11/29 20:58:32;;;;;;;86.15;29.95;;;;;;;7.40;68.20;100319.00;10428648;28;20470;-66
2022/11/29 21:03:34;;;;;;;78.97;29.10;;;;;;;7.34;68.23;100316.66;10428527;28;20053;-66
2022/11/29 21:08:36;;;;;;;77.38;29.95;;;;;;;7.31;68.16;100321.97;10431198;28;20182;-66
2022/11/29 21:13:38;;;;;;;76.20;29.65;;;;;;;7.22;68.45;100323.22;10429647;28;20045;-66
2022/11/29 21:18:40;;;;;;;100.78;31.15;;;;;;;7.20;68.49;100325.03;10426777;28;20041;-66
2022/11/29 21:23:51;;;;;;;90.25;31.60;;;;;;;7.24;68.47;100324.00;10436948;28;20053;-67
2022/11/29 21:29:05;;;;;;;109.68;33.97;;;;;;;7.29;68.21;100326.38;10451524;28;20795;-67
2022/11/29 21:34:07;;;;;;;79.03;27.73;;;;;;;7.20;68.51;100333.66;10428957;28;20056;-67
2022/11/29 21:39:13;;;;;;;82.13;29.42;;;;;;;7.18;68.70;100327.66;10427187;28;20049;-67
2022/11/29 21:44:15;;;;;;;75.18;30.63;;;;;;;7.23;68.54;100337.03;10431550;28;20044;-66
2022/11/29 21:49:16;;;;;;;76.38;30.25;;;;;;;7.31;68.39;100324.56;10427070;28;20420;-66
2022/11/29 21:54:18;;;;;;;96.65;32.03;;;;;;;7.36;68.22;100322.66;10426260;28;20401;-66
2022/11/29 21:59:20;;;;;;;101.55;34.63;;;;;;;7.38;68.14;100324.28;10458978;28;20247;-66
2022/11/29 22:04:22;;;;;;;74.30;29.40;;;;;;;7.33;68.12;100338.38;10427458;28;20045;-66
2022/11/29 22:09:23;;;;;;;89.07;29.92;;;;;;;7.24;68.29;100349.16;10426574;28;20063;-66
2022/11/29 22:14:25;;;;;;;73.47;28.80;;;;;;;7.20;68.52;100340.63;10427245;28;20051;-65
2022/11/29 22:19:29;;;;;;;84.20;29.88;;;;;;;7.32;68.30;100341.88;10428108;28;20532;-65
2022/11/29 22:24:33;;;;;;;98.00;31.33;;;;;;;7.37;68.16;100337.34;10426519;28;20377;-66
2022/11/29 22:29:34;;;;;;;89.57;30.45;;;;;;;7.28;68.39;100341.16;10450498;28;20296;-66
2022/11/29 22:34:36;;;;;;;96.05;30.13;;;;;;;7.24;68.30;100339.59;10459817;28;20040;-65
2022/11/29 22:39:37;;;;;;;108.13;31.77;;;;;;;7.27;68.16;100351.63;10467104;28;20048;-65
2022/11/29 22:44:39;;;;;;;89.35;28.85;;;;;;;7.20;68.33;100346.66;10431694;28;20052;-66
2022/11/29 22:49:43;;;;;;;82.50;29.00;;;;;;;7.21;68.36;100347.50;10426278;28;20504;-66
2022/11/29 22:54:44;;;;;;;94.82;29.65;;;;;;;7.18;68.45;100347.66;10457237;28;20045;-66
2022/11/29 22:59:46;;;;;;;94.70;31.67;;;;;;;7.24;68.60;100352.59;10467156;28;20568;-66
2022/11/29 23:04:48;;;;;;;88.85;28.45;;;;;;;7.21;68.39;100355.31;10440361;28;20071;-66
2022/11/29 23:09:50;;;;;;;54.55;24.17;;;;;;;7.18;68.64;100358.06;10424710;28;20056;-66
2022/11/29 23:14:51;;;;;;;77.35;28.13;;;;;;;7.19;68.55;100360.59;10464501;28;20049;-66
2022/11/29 23:19:57;;;;;;;73.72;27.75;;;;;;;7.26;68.56;100365.53;10442640;28;20045;-65
2022/11/29 23:24:58;;;;;;;79.22;29.10;;;;;;;7.27;68.49;100362.03;10433962;28;20053;-66
2022/11/29 23:30:00;;;;;;;94.00;29.75;;;;;;;7.30;68.34;100367.97;10444577;28;20057;-66
2022/11/29 23:35:01;;;;;;;62.70;26.13;;;;;;;7.29;68.40;100355.84;10434273;28;20053;-67
2022/11/29 23:40:04;;;;;;;67.47;26.88;;;;;;;7.40;68.34;100364.09;10432975;28;20057;-66